Time;durP1;ratioP1;P1;durP2;ratioP2;P2;SDS_P1;SDS_P2;PMS_P1;PMS_P2;Temp;Humidity;BMP_temperature;BMP_pressure;BME280_temperature;BME280_humidity;BME280_pressure;Samples;Min_cycle;Max_cycle;Signal;HPM_P1;HPM_P2
2021/08/22 00:00:30;;;;;;;18.95;17.05;;;17.70;99.90;;;;;;2088735;28;20025;-74
2021/08/22 00:01:30;;;;;;;18.17;16.38;;;17.70;99.90;;;;;;2088875;28;20033;-69
2021/08/22 00:02:31;;;;;;;18.92;16.95;;;17.70;99.90;;;;;;2088761;28;20460;-69
2021/08/22 00:03:31;;;;;;;18.80;16.95;;;17.60;99.90;;;;;;2096322;28;20083;-71
2021/08/22 00:04:32;;;;;;;21.23;18.98;;;17.70;99.90;;;;;;2079774;28;20033;-71
2021/08/22 00:05:33;;;;;;;20.27;18.17;;;17.60;99.90;;;;;;2071825;28;20472;-71
2021/08/22 00:06:34;;;;;;;19.67;17.67;;;17.60;99.90;;;;;;2088776;28;20082;-70
2021/08/22 00:07:34;;;;;;;19.05;17.00;;;17.60;99.90;;;;;;2079522;28;20034;-71
2021/08/22 00:08:39;;;;;;;19.77;17.67;;;17.60;99.90;;;;;;2079812;28;20018;-71
2021/08/22 00:09:39;;;;;;;20.38;18.23;;;17.60;99.90;;;;;;2088798;28;20040;-72
2021/08/22 00:10:40;;;;;;;20.67;18.55;;;17.60;99.90;;;;;;2088727;28;20373;-71
2021/08/22 00:11:40;;;;;;;19.90;17.80;;;17.50;99.90;;;;;;2088550;28;20083;-69
2021/08/22 00:12:41;;;;;;;19.75;17.65;;;17.50;99.90;;;;;;2088755;28;20033;-69
2021/08/22 00:13:42;;;;;;;20.20;18.10;;;17.50;99.90;;;;;;2088726;28;20484;-69
2021/08/22 00:14:42;;;;;;;19.33;17.33;;;17.50;99.90;;;;;;2088733;28;20020;-72
2021/08/22 00:15:43;;;;;;;20.13;18.00;;;17.50;99.90;;;;;;2088737;28;20027;-71
2021/08/22 00:16:44;;;;;;;20.50;18.35;;;17.50;99.90;;;;;;2096306;28;20410;-72
2021/08/22 00:17:44;;;;;;;19.95;17.95;;;17.40;99.90;;;;;;2096020;28;20028;-75
2021/08/22 00:18:45;;;;;;;19.77;17.77;;;17.40;99.90;;;;;;2088470;28;20177;-72
2021/08/22 00:19:46;;;;;;;19.92;17.83;;;17.30;99.90;;;;;;2088667;28;20060;-73
2021/08/22 00:20:46;;;;;;;20.13;18.02;;;17.30;99.90;;;;;;2088693;28;20036;-74
2021/08/22 00:21:47;;;;;;;19.75;17.70;;;17.30;99.90;;;;;;2088774;28;20047;-74
2021/08/22 00:22:48;;;;;;;20.75;18.60;;;17.30;99.90;;;;;;2088945;28;20083;-74
2021/08/22 00:23:49;;;;;;;20.42;18.25;;;17.30;99.90;;;;;;2088877;28;20033;-74
2021/08/22 00:24:49;;;;;;;21.05;18.95;;;17.20;99.90;;;;;;2088567;28;20048;-73
2021/08/22 00:25:50;;;;;;;20.85;18.65;;;17.20;99.90;;;;;;2088502;28;20506;-73
2021/08/22 00:26:51;;;;;;;19.85;17.75;;;17.20;99.90;;;;;;2079840;28;20380;-74
2021/08/22 00:27:52;;;;;;;21.05;18.95;;;17.20;99.90;;;;;;2079350;28;20033;-73
2021/08/22 00:28:52;;;;;;;21.35;19.15;;;17.20;99.90;;;;;;2088333;28;20081;-73
2021/08/22 00:29:53;;;;;;;20.35;18.25;;;17.10;99.90;;;;;;2088780;28;20028;-74
2021/08/22 00:30:53;;;;;;;20.08;18.08;;;17.10;99.90;;;;;;2091450;28;20029;-74
2021/08/22 00:31:54;;;;;;;19.55;17.58;;;17.10;99.90;;;;;;2091485;28;20060;-72
2021/08/22 00:32:54;;;;;;;20.40;18.20;;;17.00;99.90;;;;;;2091380;28;20074;-74
2021/08/22 00:33:55;;;;;;;20.75;18.65;;;17.00;99.90;;;;;;2091636;28;20071;-75
2021/08/22 00:34:56;;;;;;;20.17;18.17;;;17.00;99.90;;;;;;2091448;28;20795;-73
2021/08/22 00:35:56;;;;;;;21.40;18.42;;;17.00;99.90;;;;;;2091289;28;20058;-74
2021/08/22 00:36:57;;;;;;;20.88;18.60;;;17.00;99.90;;;;;;2082643;28;20033;-74
2021/08/22 00:37:59;;;;;;;20.95;18.75;;;16.90;99.90;;;;;;2082052;28;20056;-74
2021/08/22 00:38:59;;;;;;;21.33;19.10;;;16.90;99.90;;;;;;2091377;28;20439;-74
2021/08/22 00:40:00;;;;;;;21.25;19.15;;;16.90;99.90;;;;;;2091634;28;20116;-72
2021/08/22 00:41:03;;;;;;;21.00;18.80;;;16.90;99.90;;;;;;2082738;28;20112;-73
2021/08/22 00:42:04;;;;;;;21.55;19.27;;;16.90;99.90;;;;;;2082919;28;20108;-74
2021/08/22 00:43:08;;;;;;;21.40;19.10;;;16.90;99.90;;;;;;2099010;28;20105;-73
2021/08/22 00:44:08;;;;;;;20.83;18.70;;;16.80;99.90;;;;;;2098654;28;20040;-72
2021/08/22 00:45:10;;;;;;;21.60;19.27;;;16.80;99.90;;;;;;2091455;28;20419;-75
2021/08/22 00:46:10;;;;;;;21.40;19.20;;;16.80;99.90;;;;;;2082232;28;20532;-73
2021/08/22 00:47:11;;;;;;;21.17;18.90;;;16.80;99.90;;;;;;2082157;28;20025;-74
2021/08/22 00:48:12;;;;;;;20.63;18.52;;;16.80;99.90;;;;;;2091370;28;20063;-74
2021/08/22 00:49:13;;;;;;;20.73;18.63;;;16.80;99.90;;;;;;2090891;28;20159;-73
2021/08/22 00:50:15;;;;;;;20.73;18.52;;;16.80;99.90;;;;;;2091319;28;20102;-73
2021/08/22 00:51:16;;;;;;;21.20;19.00;;;16.80;99.90;;;;;;2091410;28;20044;-73
2021/08/22 00:52:17;;;;;;;20.95;18.75;;;16.70;99.90;;;;;;2091367;28;20067;-74
2021/08/22 00:53:18;;;;;;;20.52;18.45;;;16.70;99.90;;;;;;2091417;28;20040;-74
2021/08/22 00:54:19;;;;;;;20.80;18.67;;;16.70;99.90;;;;;;2091405;28;20017;-74
2021/08/22 00:55:21;;;;;;;20.65;18.55;;;16.70;99.90;;;;;;2082497;28;20029;-74
2021/08/22 00:56:21;;;;;;;20.25;18.15;;;16.70;99.90;;;;;;2082900;28;20607;-74
2021/08/22 00:57:22;;;;;;;20.95;18.85;;;16.70;99.90;;;;;;2091126;28;20078;-74
2021/08/22 00:58:22;;;;;;;20.83;18.73;;;16.70;99.90;;;;;;2091695;28;20110;-75
2021/08/22 00:59:23;;;;;;;21.25;18.95;;;16.70;99.90;;;;;;2091360;28;20109;-73
2021/08/22 01:00:24;;;;;;;20.45;18.35;;;16.70;99.90;;;;;;2091735;28;20033;-74
2021/08/22 01:01:25;;;;;;;21.02;18.92;;;16.70;99.90;;;;;;2091840;28;20037;-74
2021/08/22 01:02:30;;;;;;;21.33;19.13;;;16.70;99.90;;;;;;2091701;28;20033;-74
2021/08/22 01:03:40;;;;;;;21.88;19.58;;;16.70;99.90;;;;;;2091751;28;20412;-75
2021/08/22 01:05:26;;;;;;;22.08;19.88;;;16.70;99.90;;;;;;2091878;28;20549;-74
2021/08/22 01:06:43;;;;;;;21.70;19.40;;;16.70;99.90;;;;;;2094438;28;20485;-73
2021/08/22 01:08:04;;;;;;;21.23;19.02;;;16.70;99.90;;;;;;2094318;28;20017;-73
2021/08/22 01:09:19;;;;;;;20.98;18.77;;;16.70;99.90;;;;;;2094931;28;20033;-74
2021/08/22 01:10:26;;;;;;;20.67;18.45;;;16.70;99.90;;;;;;2094611;28;20131;-73
2021/08/22 01:11:30;;;;;;;20.73;18.13;;;16.70;99.90;;;;;;2095366;28;20037;-74
2021/08/22 01:12:39;;;;;;;21.40;19.13;;;16.70;99.90;;;;;;2098610;28;20044;-71
2021/08/22 01:13:43;;;;;;;20.02;17.92;;;16.70;99.90;;;;;;2092633;28;20132;-71
2021/08/22 01:14:48;;;;;;;19.95;17.95;;;16.70;99.90;;;;;;2086250;28;20396;-73
2021/08/22 01:15:54;;;;;;;19.98;17.98;;;16.80;99.90;;;;;;2092016;28;20060;-74
2021/08/22 01:16:57;;;;;;;20.50;18.23;;;16.80;99.90;;;;;;2092166;28;20041;-74
2021/08/22 01:18:00;;;;;;;20.00;17.90;;;16.80;99.90;;;;;;2091601;28;20033;-74
2021/08/22 01:19:06;;;;;;;19.90;17.90;;;16.80;99.90;;;;;;2091742;28;20412;-75
2021/08/22 01:20:26;;;;;;;19.70;17.63;;;16.80;99.90;;;;;;2091585;28;20056;-75
2021/08/22 01:21:27;;;;;;;19.25;17.27;;;16.90;99.90;;;;;;2091710;28;20494;-74
2021/08/22 01:22:30;;;;;;;19.77;17.77;;;16.90;99.90;;;;;;2091539;28;20040;-74
2021/08/22 01:23:35;;;;;;;19.58;17.65;;;16.90;99.90;;;;;;2082497;28;20028;-75
2021/08/22 01:24:39;;;;;;;19.65;17.63;;;16.90;99.90;;;;;;2083152;28;20068;-74
2021/08/22 01:25:42;;;;;;;18.58;16.70;;;17.00;99.90;;;;;;2082583;28;20141;-73
2021/08/22 01:26:43;;;;;;;18.52;16.67;;;16.90;99.90;;;;;;2082777;28;20124;-74
2021/08/22 01:27:45;;;;;;;18.67;16.67;;;17.00;99.90;;;;;;2090966;28;20040;-75
2021/08/22 01:28:47;;;;;;;20.00;18.00;;;17.00;99.90;;;;;;2090999;28;20115;-75
2021/08/22 01:30:03;;;;;;;19.08;17.10;;;17.00;99.90;;;;;;2091343;28;20017;-75
2021/08/22 01:31:08;;;;;;;18.77;16.85;;;17.00;99.90;;;;;;2091511;28;20025;-75
2021/08/22 01:32:12;;;;;;;19.58;17.52;;;17.00;99.90;;;;;;2091373;28;20505;-74
2021/08/22 01:33:15;;;;;;;18.67;16.77;;;17.00;99.90;;;;;;2091351;28;20112;-73
2021/08/22 01:34:18;;;;;;;19.20;16.92;;;17.00;99.90;;;;;;2091265;28;20029;-75
2021/08/22 01:35:23;;;;;;;18.30;16.40;;;17.00;99.90;;;;;;2091032;28;20036;-74
2021/08/22 01:36:25;;;;;;;18.65;16.65;;;17.00;99.90;;;;;;2091309;28;20020;-74
2021/08/22 01:37:26;;;;;;;18.30;16.08;;;17.00;99.90;;;;;;2090746;28;20039;-74
2021/08/22 01:38:27;;;;;;;17.77;15.98;;;17.00;99.90;;;;;;2091156;28;20041;-74
2021/08/22 01:39:30;;;;;;;18.20;16.40;;;16.90;99.90;;;;;;2090815;28;20021;-74
2021/08/22 01:40:32;;;;;;;17.98;16.13;;;16.90;99.90;;;;;;2091217;28;20535;-73
2021/08/22 01:41:32;;;;;;;17.77;15.98;;;17.00;99.90;;;;;;2090825;28;20464;-74
2021/08/22 01:42:35;;;;;;;18.00;15.82;;;16.90;99.90;;;;;;2089311;28;20040;-75
2021/08/22 01:43:36;;;;;;;17.38;15.57;;;16.90;99.90;;;;;;2089912;28;20508;-74
2021/08/22 01:44:38;;;;;;;16.98;15.27;;;16.90;99.90;;;;;;2081037;28;20049;-75
2021/08/22 01:45:41;;;;;;;16.67;15.07;;;16.90;99.90;;;;;;2081081;28;20025;-74
2021/08/22 01:46:42;;;;;;;17.80;16.00;;;16.90;99.90;;;;;;2089877;28;20025;-74
2021/08/22 01:47:49;;;;;;;18.13;16.20;;;16.90;99.90;;;;;;2089603;28;20032;-73
2021/08/22 01:48:50;;;;;;;18.05;16.15;;;16.90;99.90;;;;;;2089515;28;20039;-73
2021/08/22 01:49:53;;;;;;;18.52;16.63;;;16.90;99.90;;;;;;2080894;28;20029;-74
2021/08/22 01:50:58;;;;;;;18.17;16.38;;;16.80;99.90;;;;;;2081046;28;20409;-74
2021/08/22 01:52:00;;;;;;;17.50;15.80;;;16.80;99.90;;;;;;2089852;28;20025;-74
2021/08/22 01:53:04;;;;;;;17.98;16.17;;;16.80;99.90;;;;;;2080812;28;20026;-73
2021/08/22 01:54:07;;;;;;;18.38;16.45;;;16.80;99.90;;;;;;2081463;28;20530;-72
2021/08/22 01:55:08;;;;;;;17.90;16.10;;;16.80;99.90;;;;;;2089836;28;20025;-74
2021/08/22 01:56:09;;;;;;;18.33;16.42;;;16.70;99.90;;;;;;2089860;28;20032;-72
2021/08/22 01:57:09;;;;;;;17.30;15.52;;;16.70;99.90;;;;;;2089257;28;20033;-74
2021/08/22 01:58:10;;;;;;;18.13;15.52;;;16.70;99.90;;;;;;2089783;28;20029;-74
2021/08/22 01:59:13;;;;;;;17.45;15.50;;;16.70;99.90;;;;;;2089607;28;20029;-73
2021/08/22 02:00:14;;;;;;;17.30;15.50;;;16.70;99.90;;;;;;2089676;28;20029;-74
2021/08/22 02:01:15;;;;;;;17.58;15.75;;;16.60;99.90;;;;;;2089823;28;20021;-74
2021/08/22 02:02:15;;;;;;;18.05;16.25;;;16.60;99.90;;;;;;2089478;28;20020;-73
2021/08/22 02:03:22;;;;;;;17.83;16.02;;;16.60;99.90;;;;;;2089637;28;20029;-74
2021/08/22 02:04:33;;;;;;;18.17;16.27;;;16.50;99.90;;;;;;2089813;28;20554;-73
2021/08/22 02:05:37;;;;;;;18.35;16.48;;;16.50;99.90;;;;;;2080920;28;20477;-74
2021/08/22 02:06:47;;;;;;;18.05;16.25;;;16.50;99.90;;;;;;2081316;28;20099;-74
2021/08/22 02:07:48;;;;;;;18.35;16.55;;;16.50;99.90;;;;;;2089246;28;20284;-74
2021/08/22 02:08:57;;;;;;;18.70;16.73;;;16.50;99.90;;;;;;2080425;28;20087;-73
2021/08/22 02:10:07;;;;;;;18.25;16.35;;;16.40;99.90;;;;;;2082160;28;20041;-72
2021/08/22 02:11:17;;;;;;;17.67;15.88;;;16.40;99.90;;;;;;2089681;28;20025;-72
2021/08/22 02:12:19;;;;;;;17.55;15.85;;;16.40;99.90;;;;;;2089648;28;20025;-72
2021/08/22 02:13:26;;;;;;;17.92;16.13;;;16.40;99.90;;;;;;2089588;28;20488;-72
2021/08/22 02:14:30;;;;;;;17.85;15.95;;;16.40;99.90;;;;;;2089430;28;20025;-72
2021/08/22 02:15:40;;;;;;;18.13;16.23;;;16.40;99.90;;;;;;2089626;28;20068;-72
2021/08/22 02:16:48;;;;;;;18.42;16.52;;;16.40;99.90;;;;;;2080667;28;20033;-72
2021/08/22 02:18:11;;;;;;;17.85;16.05;;;16.30;99.90;;;;;;2080188;28;20087;-72
2021/08/22 02:19:14;;;;;;;18.42;16.63;;;16.30;99.90;;;;;;2083753;28;20060;-72
2021/08/22 02:20:15;;;;;;;17.45;15.65;;;16.30;99.90;;;;;;2089498;28;20056;-72
2021/08/22 02:21:16;;;;;;;18.17;15.80;;;16.30;99.90;;;;;;2089538;28;20059;-72
2021/08/22 02:22:16;;;;;;;17.40;15.60;;;16.30;99.90;;;;;;2089474;28;20037;-72
2021/08/22 02:23:18;;;;;;;17.05;15.25;;;16.30;99.90;;;;;;2089467;28;20036;-72
2021/08/22 02:24:19;;;;;;;16.33;14.63;;;16.20;99.90;;;;;;2080458;28;20440;-72
2021/08/22 02:25:20;;;;;;;16.42;14.80;;;16.20;99.90;;;;;;2080699;28;20568;-72
2021/08/22 02:26:23;;;;;;;17.08;15.27;;;16.30;99.90;;;;;;2080581;28;20596;-72
2021/08/22 02:27:28;;;;;;;16.88;15.07;;;16.30;99.90;;;;;;2080096;28;20088;-72
2021/08/22 02:28:31;;;;;;;16.83;15.13;;;16.30;99.90;;;;;;2080886;28;20048;-72
2021/08/22 02:29:31;;;;;;;16.65;14.95;;;16.20;99.90;;;;;;2089279;28;20021;-72
2021/08/22 02:30:34;;;;;;;16.27;14.57;;;16.20;99.90;;;;;;2080646;28;20537;-72
2021/08/22 02:31:35;;;;;;;15.52;14.02;;;16.20;99.90;;;;;;2080889;28;20025;-72
2021/08/22 02:32:36;;;;;;;15.82;14.23;;;16.20;99.90;;;;;;2080636;28;20084;-72
2021/08/22 02:33:36;;;;;;;16.00;14.25;;;16.20;99.90;;;;;;2080677;28;20030;-72
2021/08/22 02:34:37;;;;;;;16.73;14.93;;;16.20;99.90;;;;;;2089534;28;20099;-72
2021/08/22 02:35:37;;;;;;;16.08;14.38;;;16.20;99.90;;;;;;2089517;28;20112;-72
2021/08/22 02:36:38;;;;;;;15.50;13.90;;;16.20;99.90;;;;;;2089501;28;20060;-72
2021/08/22 02:37:39;;;;;;;15.57;13.98;;;16.20;99.90;;;;;;2080083;28;20036;-72
2021/08/22 02:38:39;;;;;;;15.90;14.23;;;16.20;99.90;;;;;;2080211;28;20061;-72
2021/08/22 02:39:40;;;;;;;15.52;14.02;;;16.20;99.90;;;;;;2089307;28;20029;-72
2021/08/22 02:40:41;;;;;;;15.40;13.90;;;16.20;99.90;;;;;;2089320;28;20053;-72
2021/08/22 02:41:41;;;;;;;16.17;14.57;;;16.10;99.90;;;;;;2089324;28;20029;-72
2021/08/22 02:42:42;;;;;;;14.98;13.48;;;16.20;99.90;;;;;;2089218;28;20221;-71
2021/08/22 02:43:42;;;;;;;14.95;13.45;;;16.20;99.90;;;;;;2089383;28;20064;-72
2021/08/22 02:44:44;;;;;;;15.18;13.68;;;16.20;99.90;;;;;;2080591;28;20108;-72
2021/08/22 02:45:45;;;;;;;14.93;13.38;;;16.20;99.90;;;;;;2080618;28;20532;-72
2021/08/22 02:46:45;;;;;;;14.88;13.27;;;16.20;99.90;;;;;;2080464;28;20032;-72
2021/08/22 02:47:46;;;;;;;14.32;12.82;;;16.20;99.90;;;;;;2079998;28;20025;-72
2021/08/22 02:48:46;;;;;;;14.38;12.88;;;16.20;99.90;;;;;;2088943;28;20445;-71
2021/08/22 02:49:47;;;;;;;14.40;12.90;;;16.20;99.90;;;;;;2080473;28;20412;-71
2021/08/22 02:50:48;;;;;;;13.95;12.55;;;16.20;99.90;;;;;;2080444;28;20095;-72
2021/08/22 02:51:48;;;;;;;13.77;12.30;;;16.20;99.90;;;;;;2089152;28;20029;-71
2021/08/22 02:52:49;;;;;;;14.98;13.35;;;16.20;99.90;;;;;;2089427;28;20457;-71
2021/08/22 02:53:49;;;;;;;13.73;12.32;;;16.20;99.90;;;;;;2088250;28;20029;-72
2021/08/22 02:54:50;;;;;;;13.63;12.23;;;16.20;99.90;;;;;;2089168;28;20112;-71
2021/08/22 02:55:50;;;;;;;12.93;11.73;;;16.20;99.90;;;;;;2096901;28;20021;-72
2021/08/22 02:56:51;;;;;;;13.18;11.88;;;16.30;99.90;;;;;;2097041;28;20091;-72
2021/08/22 02:57:52;;;;;;;12.35;11.15;;;16.30;99.90;;;;;;2088859;28;20025;-72
2021/08/22 02:58:52;;;;;;;13.68;12.25;;;16.30;99.90;;;;;;2088901;28;20033;-72
2021/08/22 02:59:53;;;;;;;14.38;12.30;;;16.40;99.90;;;;;;2089214;28;20055;-72
2021/08/22 03:00:53;;;;;;;13.00;11.70;;;16.30;99.90;;;;;;2088927;28;20531;-72
2021/08/22 03:01:54;;;;;;;13.70;12.30;;;16.40;99.90;;;;;;2089191;28;20032;-72
2021/08/22 03:02:55;;;;;;;12.27;10.93;;;16.40;99.90;;;;;;2089191;28;20090;-73
2021/08/22 03:03:55;;;;;;;12.80;11.50;;;16.40;99.90;;;;;;2089183;28;20443;-72
2021/08/22 03:04:56;;;;;;;13.32;12.02;;;16.40;99.90;;;;;;2080368;28;20365;-72
2021/08/22 03:05:56;;;;;;;13.27;11.85;;;16.50;99.90;;;;;;2080309;28;20057;-72
2021/08/22 03:06:57;;;;;;;12.77;11.57;;;16.50;99.90;;;;;;2080442;28;20069;-71
2021/08/22 03:07:57;;;;;;;12.57;11.32;;;16.50;99.90;;;;;;2079898;28;20108;-72
2021/08/22 03:09:00;;;;;;;12.52;11.27;;;16.50;99.90;;;;;;2088799;28;20036;-72
2021/08/22 03:10:00;;;;;;;12.55;11.35;;;16.60;99.90;;;;;;2089111;28;20074;-72
2021/08/22 03:11:01;;;;;;;12.55;11.27;;;16.60;99.90;;;;;;2089096;28;20044;-72
2021/08/22 03:12:02;;;;;;;12.77;11.45;;;16.60;99.90;;;;;;2096713;28;20030;-72
2021/08/22 03:13:03;;;;;;;13.77;12.15;;;16.70;99.90;;;;;;2096465;28;20094;-72
2021/08/22 03:14:05;;;;;;;14.02;11.77;;;16.70;99.90;;;;;;2089084;28;20104;-72
2021/08/22 03:15:07;;;;;;;12.65;11.35;;;16.70;99.90;;;;;;2089103;28;20024;-72
2021/08/22 03:16:08;;;;;;;12.77;11.50;;;16.70;99.90;;;;;;2089040;28;20021;-72
2021/08/22 03:17:08;;;;;;;13.93;11.45;;;16.80;99.90;;;;;;2088578;28;20056;-71
2021/08/22 03:18:09;;;;;;;14.52;11.15;;;16.80;99.90;;;;;;2089127;28;20554;-71
2021/08/22 03:19:11;;;;;;;12.32;11.02;;;16.80;99.90;;;;;;2079981;28;20097;-71
2021/08/22 03:20:11;;;;;;;12.77;11.48;;;16.90;99.90;;;;;;2080386;28;20041;-72
2021/08/22 03:21:12;;;;;;;13.23;11.82;;;16.90;99.90;;;;;;2080246;28;20030;-72
2021/08/22 03:22:13;;;;;;;12.30;11.00;;;16.90;99.90;;;;;;2080305;28;20059;-74
2021/08/22 03:23:14;;;;;;;12.05;10.88;;;16.90;99.90;;;;;;2089053;28;20408;-74
2021/08/22 03:24:14;;;;;;;11.32;10.23;;;16.90;99.90;;;;;;2089562;28;20025;-73
2021/08/22 03:25:15;;;;;;;12.18;10.93;;;17.00;99.90;;;;;;2089430;28;20029;-72
2021/08/22 03:26:16;;;;;;;11.68;10.55;;;16.90;99.90;;;;;;2089172;28;20108;-71
2021/08/22 03:27:16;;;;;;;11.90;10.70;;;17.00;99.90;;;;;;2088781;28;20063;-72
2021/08/22 03:28:17;;;;;;;12.20;10.70;;;17.00;99.90;;;;;;2089169;28;20393;-73
2021/08/22 03:29:18;;;;;;;12.90;11.48;;;17.00;99.90;;;;;;2088993;28;20106;-72
2021/08/22 03:30:18;;;;;;;13.07;11.38;;;17.00;99.90;;;;;;2089090;28;20087;-73
2021/08/22 03:31:19;;;;;;;12.50;11.20;;;17.00;99.90;;;;;;2089323;28;20039;-71
2021/08/22 03:32:20;;;;;;;12.88;11.27;;;17.00;99.90;;;;;;2096914;28;20031;-72
2021/08/22 03:33:20;;;;;;;12.10;10.90;;;17.00;99.90;;;;;;2097034;28;20028;-73
2021/08/22 03:34:21;;;;;;;11.55;10.32;;;17.00;99.90;;;;;;2089234;28;20511;-71
2021/08/22 03:35:22;;;;;;;11.93;10.68;;;17.00;99.90;;;;;;2089110;28;20703;-71
2021/08/22 03:36:22;;;;;;;11.82;10.50;;;17.00;99.90;;;;;;2089101;28;20104;-72
2021/08/22 03:37:23;;;;;;;12.20;10.90;;;17.00;99.90;;;;;;2088376;28;20056;-72
2021/08/22 03:38:24;;;;;;;11.60;10.50;;;17.00;99.90;;;;;;2088815;28;20091;-73
2021/08/22 03:39:25;;;;;;;12.10;10.85;;;17.00;99.90;;;;;;2088691;28;20098;-71
2021/08/22 03:40:25;;;;;;;11.32;10.23;;;17.00;99.90;;;;;;2088872;28;20078;-71
2021/08/22 03:41:26;;;;;;;12.32;10.98;;;17.00;99.90;;;;;;2088902;28;20383;-71
2021/08/22 03:42:26;;;;;;;11.75;10.55;;;17.10;99.90;;;;;;2088826;28;20021;-71
2021/08/22 03:43:27;;;;;;;11.55;10.38;;;17.00;99.90;;;;;;2096623;28;20399;-71
2021/08/22 03:44:27;;;;;;;11.15;10.02;;;17.10;99.90;;;;;;2096504;28;20036;-71
2021/08/22 03:45:28;;;;;;;11.05;9.88;;;17.10;99.90;;;;;;2088918;28;20056;-71
2021/08/22 03:46:29;;;;;;;11.13;10.02;;;17.10;99.90;;;;;;2088839;28;20039;-71
2021/08/22 03:47:30;;;;;;;11.25;10.10;;;17.10;99.90;;;;;;2079423;28;20540;-71
2021/08/22 03:48:30;;;;;;;11.65;10.45;;;17.10;99.90;;;;;;2080204;28;20029;-73
2021/08/22 03:49:31;;;;;;;11.45;10.25;;;17.10;99.90;;;;;;2088958;28;20040;-73
2021/08/22 03:50:31;;;;;;;11.70;10.50;;;17.10;99.90;;;;;;2088910;28;20477;-73
2021/08/22 03:51:32;;;;;;;10.63;9.63;;;17.10;99.90;;;;;;2088916;28;20413;-73
2021/08/22 03:52:32;;;;;;;11.45;10.35;;;17.10;99.90;;;;;;2088774;28;20032;-72
2021/08/22 03:53:33;;;;;;;11.70;10.48;;;17.10;99.90;;;;;;2080123;28;20112;-74
2021/08/22 03:54:33;;;;;;;10.82;9.73;;;17.10;99.90;;;;;;2080288;28;20022;-75
2021/08/22 03:55:34;;;;;;;11.68;9.75;;;17.10;99.90;;;;;;2089134;28;20033;-74
2021/08/22 03:56:35;;;;;;;11.32;10.20;;;17.10;99.90;;;;;;2089008;28;20488;-72
2021/08/22 03:57:35;;;;;;;10.98;9.88;;;17.10;99.90;;;;;;2079503;28;20025;-71
2021/08/22 03:58:36;;;;;;;10.85;9.85;;;17.10;99.90;;;;;;2079868;28;20041;-72
2021/08/22 03:59:37;;;;;;;10.57;9.48;;;17.10;99.90;;;;;;2088871;28;20025;-72
2021/08/22 04:00:38;;;;;;;11.02;9.93;;;17.10;99.90;;;;;;2088766;28;20078;-71
2021/08/22 04:01:38;;;;;;;11.82;10.00;;;17.10;99.90;;;;;;2088821;28;20018;-71
2021/08/22 04:02:49;;;;;;;10.60;9.50;;;17.00;99.90;;;;;;2096442;28;20032;-73
2021/08/22 04:04:08;;;;;;;11.00;9.68;;;17.00;99.90;;;;;;2094469;28;20075;-71
2021/08/22 04:05:15;;;;;;;10.48;9.48;;;17.00;99.90;;;;;;2079642;28;20493;-71
2021/08/22 04:06:16;;;;;;;10.68;9.57;;;16.90;99.90;;;;;;2079698;28;20022;-71
2021/08/22 04:07:16;;;;;;;11.10;9.90;;;16.90;99.90;;;;;;2079491;28;20072;-72
2021/08/22 04:08:23;;;;;;;10.75;9.60;;;16.90;99.90;;;;;;2079980;28;20079;-72
2021/08/22 04:09:25;;;;;;;10.30;9.30;;;16.80;99.90;;;;;;2080456;28;20025;-72
2021/08/22 04:10:26;;;;;;;10.43;9.43;;;16.80;99.90;;;;;;2088798;28;20072;-73
2021/08/22 04:11:28;;;;;;;10.40;9.40;;;16.80;99.90;;;;;;2079846;28;20139;-73
2021/08/22 04:12:29;;;;;;;9.60;8.70;;;16.80;99.90;;;;;;2079992;28;20034;-72
2021/08/22 04:13:30;;;;;;;11.18;10.00;;;16.80;99.90;;;;;;2088804;28;20031;-72
2021/08/22 04:14:30;;;;;;;10.63;9.63;;;16.70;99.90;;;;;;2088703;28;20427;-72
2021/08/22 04:15:31;;;;;;;10.20;9.20;;;16.70;99.90;;;;;;2088487;28;20025;-72
2021/08/22 04:16:31;;;;;;;12.68;10.20;;;16.70;99.90;;;;;;2088655;28;20029;-73
2021/08/22 04:17:32;;;;;;;10.90;9.77;;;16.70;99.90;;;;;;2088156;28;20078;-72
2021/08/22 04:18:32;;;;;;;10.35;9.35;;;16.70;99.90;;;;;;2079944;28;20127;-73
2021/08/22 04:19:33;;;;;;;10.63;9.52;;;16.70;99.90;;;;;;2079628;28;20108;-73
2021/08/22 04:20:34;;;;;;;11.10;10.00;;;16.60;99.90;;;;;;2088637;28;20037;-73
2021/08/22 04:21:34;;;;;;;10.30;9.30;;;16.70;99.90;;;;;;2088690;28;20025;-73
2021/08/22 04:22:37;;;;;;;12.52;9.98;;;16.60;99.90;;;;;;2088782;28;20086;-72
2021/08/22 04:23:38;;;;;;;10.90;9.80;;;16.70;99.90;;;;;;2088720;28;20060;-73
2021/08/22 04:24:39;;;;;;;10.55;9.55;;;16.60;99.90;;;;;;2088732;28;20397;-73
2021/08/22 04:25:41;;;;;;;10.15;9.15;;;16.60;99.90;;;;;;2088693;28;20477;-72
2021/08/22 04:26:42;;;;;;;10.50;9.40;;;16.70;99.90;;;;;;2079924;28;20524;-72
2021/08/22 04:27:42;;;;;;;10.27;9.27;;;16.70;99.90;;;;;;2079388;28;20026;-73
2021/08/22 04:28:43;;;;;;;10.40;9.30;;;16.70;99.90;;;;;;2088214;28;20021;-72
2021/08/22 04:29:44;;;;;;;11.63;9.60;;;16.70;99.90;;;;;;2079812;28;20183;-73
2021/08/22 04:30:44;;;;;;;12.00;9.68;;;16.70;99.90;;;;;;2079812;28;20535;-72
2021/08/22 04:31:45;;;;;;;10.32;9.23;;;16.70;99.90;;;;;;2088773;28;20029;-73
2021/08/22 04:32:45;;;;;;;12.13;9.38;;;16.70;99.90;;;;;;2088719;28;20037;-72
2021/08/22 04:33:46;;;;;;;11.23;10.05;;;16.80;99.90;;;;;;2079778;28;20037;-72
2021/08/22 04:34:47;;;;;;;10.88;9.60;;;16.80;99.90;;;;;;2079879;28;20029;-73
2021/08/22 04:35:47;;;;;;;10.70;9.60;;;16.70;99.90;;;;;;2088733;28;20037;-73
2021/08/22 04:36:48;;;;;;;10.63;9.52;;;16.80;99.90;;;;;;2080023;28;20037;-73
2021/08/22 04:37:48;;;;;;;10.45;9.45;;;16.80;99.90;;;;;;2079367;28;20116;-73
2021/08/22 04:38:49;;;;;;;10.70;9.60;;;16.80;99.90;;;;;;2079593;28;20180;-73
2021/08/22 04:39:50;;;;;;;10.38;9.27;;;16.70;99.90;;;;;;2088654;28;20029;-73
2021/08/22 04:40:50;;;;;;;11.18;9.25;;;16.80;99.90;;;;;;2079478;28;20029;-73
2021/08/22 04:41:51;;;;;;;10.65;9.55;;;16.70;99.90;;;;;;2079923;28;20041;-73
2021/08/22 04:42:51;;;;;;;10.57;9.48;;;16.80;99.90;;;;;;2088625;28;20028;-73
2021/08/22 04:43:52;;;;;;;9.82;8.82;;;16.80;99.90;;;;;;2088589;28;20040;-73
2021/08/22 04:44:53;;;;;;;10.18;9.18;;;16.80;99.90;;;;;;2088624;28;20132;-72
2021/08/22 04:45:53;;;;;;;10.27;9.07;;;16.80;99.90;;;;;;2088762;28;20037;-72
2021/08/22 04:46:54;;;;;;;11.27;10.07;;;16.80;99.90;;;;;;2088579;28;20037;-73
2021/08/22 04:47:55;;;;;;;10.63;9.63;;;16.80;99.90;;;;;;2079267;28;20119;-72
2021/08/22 04:48:55;;;;;;;10.65;9.63;;;16.80;99.90;;;;;;2079386;28;20036;-72
2021/08/22 04:49:56;;;;;;;11.63;9.70;;;16.80;99.90;;;;;;2088590;28;20029;-73
2021/08/22 04:50:56;;;;;;;10.75;9.65;;;16.80;99.90;;;;;;2088670;28;20033;-72
2021/08/22 04:51:57;;;;;;;11.23;9.80;;;16.80;99.90;;;;;;2088722;28;20488;-72
2021/08/22 04:52:57;;;;;;;11.50;10.30;;;16.90;99.90;;;;;;2079849;28;20034;-72
2021/08/22 04:53:58;;;;;;;10.90;9.77;;;16.90;99.90;;;;;;2079814;28;20021;-73
2021/08/22 04:55:02;;;;;;;10.57;9.48;;;16.90;99.90;;;;;;2079568;28;20105;-73
2021/08/22 04:56:05;;;;;;;10.85;9.65;;;16.90;99.90;;;;;;2079762;28;20512;-73
2021/08/22 04:57:06;;;;;;;9.90;8.90;;;17.00;99.90;;;;;;2079960;28;20075;-73
2021/08/22 04:58:06;;;;;;;11.00;9.90;;;17.00;99.90;;;;;;2088266;28;20486;-72
2021/08/22 04:59:08;;;;;;;9.90;8.90;;;17.00;99.90;;;;;;2088359;28;20388;-72
2021/08/22 05:00:09;;;;;;;10.05;9.05;;;17.00;99.90;;;;;;2088591;28;20025;-72
2021/08/22 05:01:10;;;;;;;10.35;9.35;;;17.10;99.90;;;;;;2088530;28;20063;-73
2021/08/22 05:02:10;;;;;;;10.07;9.00;;;17.10;99.90;;;;;;2088496;28;20021;-72
2021/08/22 05:03:11;;;;;;;9.98;8.80;;;17.20;99.90;;;;;;2079664;28;20400;-72
2021/08/22 05:04:11;;;;;;;10.20;8.60;;;17.20;99.90;;;;;;2079648;28;20030;-73
2021/08/22 05:05:12;;;;;;;9.30;8.40;;;17.30;99.90;;;;;;2088646;28;20036;-72
2021/08/22 05:06:12;;;;;;;10.10;8.98;;;17.40;99.90;;;;;;2088299;28;20029;-72
2021/08/22 05:07:13;;;;;;;9.40;8.43;;;17.40;99.90;;;;;;2087999;28;20504;-72
2021/08/22 05:08:14;;;;;;;9.52;8.50;;;17.50;99.90;;;;;;2088556;28;20392;-73
2021/08/22 05:09:14;;;;;;;9.18;8.27;;;17.50;99.90;;;;;;2088142;28;20064;-72
2021/08/22 05:10:16;;;;;;;9.20;8.30;;;17.60;99.90;;;;;;2088420;28;20048;-72
2021/08/22 05:11:17;;;;;;;9.30;8.40;;;17.70;99.90;;;;;;2088467;28;20086;-73
2021/08/22 05:12:18;;;;;;;8.63;7.72;;;17.90;99.90;;;;;;2088487;28;20068;-73
2021/08/22 05:13:18;;;;;;;9.07;8.18;;;18.00;99.60;;;;;;2088446;28;20125;-72
2021/08/22 05:14:19;;;;;;;9.07;8.07;;;18.20;98.90;;;;;;2088383;28;20095;-72
2021/08/22 05:15:19;;;;;;;9.45;8.55;;;18.30;98.30;;;;;;2079605;28;20108;-73
2021/08/22 05:16:20;;;;;;;8.63;7.75;;;18.50;97.80;;;;;;2079665;28;20022;-73